sensor_id;sensor_type;location;lat;lon;timestamp;temperature;humidity
51476;DHT22;37554;50.362;7.568;2022-11-15T00:01:34;17.50;57.60
51476;DHT22;37554;50.362;7.568;2022-11-15T00:03:59;17.60;57.60
51476;DHT22;37554;50.362;7.568;2022-11-15T00:06:25;17.50;57.50
51476;DHT22;37554;50.362;7.568;2022-11-15T00:08:50;17.50;57.50
51476;DHT22;37554;50.362;7.568;2022-11-15T00:11:16;17.50;57.40
51476;DHT22;37554;50.362;7.568;2022-11-15T00:13:42;17.50;57.40
51476;DHT22;37554;50.362;7.568;2022-11-15T00:16:09;17.50;57.40
51476;DHT22;37554;50.362;7.568;2022-11-15T00:18:35;17.50;57.40
51476;DHT22;37554;50.362;7.568;2022-11-15T00:21:07;17.50;57.30
51476;DHT22;37554;50.362;7.568;2022-11-15T00:23:33;17.50;57.30
51476;DHT22;37554;50.362;7.568;2022-11-15T00:25:59;17.50;57.30
51476;DHT22;37554;50.362;7.568;2022-11-15T00:28:25;17.50;57.30
51476;DHT22;37554;50.362;7.568;2022-11-15T00:30:51;17.50;57.30
51476;DHT22;37554;50.362;7.568;2022-11-15T00:33:17;17.50;57.30
51476;DHT22;37554;50.362;7.568;2022-11-15T00:35:43;17.50;57.20
51476;DHT22;37554;50.362;7.568;2022-11-15T00:38:08;17.50;57.20
51476;DHT22;37554;50.362;7.568;2022-11-15T00:40:34;17.50;57.20
51476;DHT22;37554;50.362;7.568;2022-11-15T00:43:00;17.50;57.20
51476;DHT22;37554;50.362;7.568;2022-11-15T00:45:25;17.50;57.20
51476;DHT22;37554;50.362;7.568;2022-11-15T00:47:51;17.50;57.20
51476;DHT22;37554;50.362;7.568;2022-11-15T00:50:17;17.50;57.20
51476;DHT22;37554;50.362;7.568;2022-11-15T00:52:43;17.50;57.20
51476;DHT22;37554;50.362;7.568;2022-11-15T00:55:16;17.50;57.30
51476;DHT22;37554;50.362;7.568;2022-11-15T00:57:42;17.50;57.20
51476;DHT22;37554;50.362;7.568;2022-11-15T01:00:08;17.50;57.20
51476;DHT22;37554;50.362;7.568;2022-11-15T01:02:34;17.50;57.20
51476;DHT22;37554;50.362;7.568;2022-11-15T01:05:00;17.50;57.20
51476;DHT22;37554;50.362;7.568;2022-11-15T01:07:26;17.50;57.10
51476;DHT22;37554;50.362;7.568;2022-11-15T01:09:51;17.50;57.20
51476;DHT22;37554;50.362;7.568;2022-11-15T01:12:17;17.50;57.20
51476;DHT22;37554;50.362;7.568;2022-11-15T01:14:43;17.50;57.20
51476;DHT22;37554;50.362;7.568;2022-11-15T01:17:08;17.50;57.20
51476;DHT22;37554;50.362;7.568;2022-11-15T01:19:34;17.50;57.20
51476;DHT22;37554;50.362;7.568;2022-11-15T01:21:59;17.50;57.20
51476;DHT22;37554;50.362;7.568;2022-11-15T01:24:25;17.50;57.20
51476;DHT22;37554;50.362;7.568;2022-11-15T01:26:51;17.50;57.20
51476;DHT22;37554;50.362;7.568;2022-11-15T01:29:16;17.50;57.20
51476;DHT22;37554;50.362;7.568;2022-11-15T01:31:42;17.50;57.10
51476;DHT22;37554;50.362;7.568;2022-11-15T01:34:08;17.50;57.10
51476;DHT22;37554;50.362;7.568;2022-11-15T01:36:33;17.50;57.10
51476;DHT22;37554;50.362;7.568;2022-11-15T01:38:59;17.50;57.20
51476;DHT22;37554;50.362;7.568;2022-11-15T01:41:31;17.50;57.10
51476;DHT22;37554;50.362;7.568;2022-11-15T01:46:46;17.50;57.10
51476;DHT22;37554;50.362;7.568;2022-11-15T01:49:16;17.50;57.10
51476;DHT22;37554;50.362;7.568;2022-11-15T01:51:42;17.50;57.20
51476;DHT22;37554;50.362;7.568;2022-11-15T01:54:12;17.50;57.10
51476;DHT22;37554;50.362;7.568;2022-11-15T01:56:43;17.50;57.10
51476;DHT22;37554;50.362;7.568;2022-11-15T01:59:10;17.40;57.10
51476;DHT22;37554;50.362;7.568;2022-11-15T02:01:37;17.50;57.20
51476;DHT22;37554;50.362;7.568;2022-11-15T02:04:11;17.50;57.20
51476;DHT22;37554;50.362;7.568;2022-11-15T02:06:38;17.50;57.10
51476;DHT22;37554;50.362;7.568;2022-11-15T02:09:04;17.50;57.10
51476;DHT22;37554;50.362;7.568;2022-11-15T02:11:30;17.50;57.10
51476;DHT22;37554;50.362;7.568;2022-11-15T02:13:57;17.50;57.10
51476;DHT22;37554;50.362;7.568;2022-11-15T02:21:47;17.50;57.10
51476;DHT22;37554;50.362;7.568;2022-11-15T02:27:36;17.50;57.20
51476;DHT22;37554;50.362;7.568;2022-11-15T02:33:31;17.50;57.20
51476;DHT22;37554;50.362;7.568;2022-11-15T02:36:00;17.50;57.20
51476;DHT22;37554;50.362;7.568;2022-11-15T02:38:59;17.50;57.30
51476;DHT22;37554;50.362;7.568;2022-11-15T02:41:48;17.50;57.30
51476;DHT22;37554;50.362;7.568;2022-11-15T02:44:30;17.50;57.30
51476;DHT22;37554;50.362;7.568;2022-11-15T02:47:01;17.50;57.40
51476;DHT22;37554;50.362;7.568;2022-11-15T02:49:51;17.50;57.40
51476;DHT22;37554;50.362;7.568;2022-11-15T02:52:20;17.40;57.40
51476;DHT22;37554;50.362;7.568;2022-11-15T02:54:54;17.50;57.50
51476;DHT22;37554;50.362;7.568;2022-11-15T02:57:43;17.50;57.60
51476;DHT22;37554;50.362;7.568;2022-11-15T03:00:15;17.50;57.60
51476;DHT22;37554;50.362;7.568;2022-11-15T03:06:12;17.40;57.60
51476;DHT22;37554;50.362;7.568;2022-11-15T03:13:58;17.50;57.90
51476;DHT22;37554;50.362;7.568;2022-11-15T03:16:36;17.50;57.90
51476;DHT22;37554;50.362;7.568;2022-11-15T03:19:13;17.50;57.90
51476;DHT22;37554;50.362;7.568;2022-11-15T03:21:42;17.50;57.90
51476;DHT22;37554;50.362;7.568;2022-11-15T03:24:08;17.50;57.90
51476;DHT22;37554;50.362;7.568;2022-11-15T03:26:36;17.50;58.00
51476;DHT22;37554;50.362;7.568;2022-11-15T03:29:09;17.50;58.00
51476;DHT22;37554;50.362;7.568;2022-11-15T03:31:40;17.50;58.00
51476;DHT22;37554;50.362;7.568;2022-11-15T03:36:52;17.50;58.10
51476;DHT22;37554;50.362;7.568;2022-11-15T03:39:18;17.50;58.00
51476;DHT22;37554;50.362;7.568;2022-11-15T03:49:34;17.50;58.10
51476;DHT22;37554;50.362;7.568;2022-11-15T03:52:02;17.50;58.10
51476;DHT22;37554;50.362;7.568;2022-11-15T03:54:29;17.40;58.10
51476;DHT22;37554;50.362;7.568;2022-11-15T03:56:54;17.50;58.10
51476;DHT22;37554;50.362;7.568;2022-11-15T03:59:20;17.50;58.10
51476;DHT22;37554;50.362;7.568;2022-11-15T04:01:46;17.50;58.20
51476;DHT22;37554;50.362;7.568;2022-11-15T04:04:11;17.50;58.10
51476;DHT22;37554;50.362;7.568;2022-11-15T04:06:38;17.50;58.20
51476;DHT22;37554;50.362;7.568;2022-11-15T04:09:03;17.50;58.20
51476;DHT22;37554;50.362;7.568;2022-11-15T04:11:29;17.50;58.20
51476;DHT22;37554;50.362;7.568;2022-11-15T04:13:54;17.50;58.10
51476;DHT22;37554;50.362;7.568;2022-11-15T04:16:20;17.50;58.20
51476;DHT22;37554;50.362;7.568;2022-11-15T04:18:46;17.50;58.20
51476;DHT22;37554;50.362;7.568;2022-11-15T04:21:31;17.50;58.20
51476;DHT22;37554;50.362;7.568;2022-11-15T04:24:15;17.50;58.20
51476;DHT22;37554;50.362;7.568;2022-11-15T04:26:41;17.50;58.20
51476;DHT22;37554;50.362;7.568;2022-11-15T04:29:06;17.50;58.20
51476;DHT22;37554;50.362;7.568;2022-11-15T04:31:55;17.50;58.20
51476;DHT22;37554;50.362;7.568;2022-11-15T04:34:21;17.50;58.20
51476;DHT22;37554;50.362;7.568;2022-11-15T04:36:47;17.50;58.20
51476;DHT22;37554;50.362;7.568;2022-11-15T04:39:31;17.50;58.20
51476;DHT22;37554;50.362;7.568;2022-11-15T04:41:56;17.50;58.30
51476;DHT22;37554;50.362;7.568;2022-11-15T04:44:22;17.50;58.30
51476;DHT22;37554;50.362;7.568;2022-11-15T04:46:48;17.50;58.30
51476;DHT22;37554;50.362;7.568;2022-11-15T04:49:13;17.50;58.40
51476;DHT22;37554;50.362;7.568;2022-11-15T04:51:39;17.50;58.40
51476;DHT22;37554;50.362;7.568;2022-11-15T04:54:04;17.50;58.40
51476;DHT22;37554;50.362;7.568;2022-11-15T04:56:30;17.40;58.50
51476;DHT22;37554;50.362;7.568;2022-11-15T04:58:55;17.50;59.10
51476;DHT22;37554;50.362;7.568;2022-11-15T05:01:21;17.50;59.20
51476;DHT22;37554;50.362;7.568;2022-11-15T05:03:47;17.50;59.20
51476;DHT22;37554;50.362;7.568;2022-11-15T05:06:31;17.50;59.20
51476;DHT22;37554;50.362;7.568;2022-11-15T05:08:56;17.50;59.20
51476;DHT22;37554;50.362;7.568;2022-11-15T05:11:23;17.50;59.20
51476;DHT22;37554;50.362;7.568;2022-11-15T05:13:49;17.50;59.20
51476;DHT22;37554;50.362;7.568;2022-11-15T05:16:14;17.50;59.20
51476;DHT22;37554;50.362;7.568;2022-11-15T05:18:40;17.50;59.20
51476;DHT22;37554;50.362;7.568;2022-11-15T05:21:12;17.50;59.10
51476;DHT22;37554;50.362;7.568;2022-11-15T05:23:39;17.50;59.20
51476;DHT22;37554;50.362;7.568;2022-11-15T05:26:06;17.50;59.10
51476;DHT22;37554;50.362;7.568;2022-11-15T05:28:32;17.50;59.10
51476;DHT22;37554;50.362;7.568;2022-11-15T05:31:07;17.40;59.10
51476;DHT22;37554;50.362;7.568;2022-11-15T05:33:35;17.50;59.10
51476;DHT22;37554;50.362;7.568;2022-11-15T05:36:05;17.50;59.10
51476;DHT22;37554;50.362;7.568;2022-11-15T05:38:31;17.50;59.10
51476;DHT22;37554;50.362;7.568;2022-11-15T05:40:58;17.50;59.10
51476;DHT22;37554;50.362;7.568;2022-11-15T05:43:24;17.50;59.10
51476;DHT22;37554;50.362;7.568;2022-11-15T05:45:50;17.50;59.10
51476;DHT22;37554;50.362;7.568;2022-11-15T05:48:16;17.50;59.10
51476;DHT22;37554;50.362;7.568;2022-11-15T05:50:43;17.50;59.10
51476;DHT22;37554;50.362;7.568;2022-11-15T05:53:13;17.50;59.10
51476;DHT22;37554;50.362;7.568;2022-11-15T05:55:40;17.50;59.20
51476;DHT22;37554;50.362;7.568;2022-11-15T05:58:06;17.50;59.20
51476;DHT22;37554;50.362;7.568;2022-11-15T06:00:32;17.50;59.10
51476;DHT22;37554;50.362;7.568;2022-11-15T06:02:57;17.50;59.10
51476;DHT22;37554;50.362;7.568;2022-11-15T06:05:23;17.50;59.10
51476;DHT22;37554;50.362;7.568;2022-11-15T06:07:49;17.50;59.10
51476;DHT22;37554;50.362;7.568;2022-11-15T06:10:14;17.50;59.10
51476;DHT22;37554;50.362;7.568;2022-11-15T06:12:40;17.50;59.10
51476;DHT22;37554;50.362;7.568;2022-11-15T06:15:06;17.50;59.10
51476;DHT22;37554;50.362;7.568;2022-11-15T06:17:32;17.50;59.10
51476;DHT22;37554;50.362;7.568;2022-11-15T06:19:57;17.50;59.10
51476;DHT22;37554;50.362;7.568;2022-11-15T06:22:23;17.50;59.10
51476;DHT22;37554;50.362;7.568;2022-11-15T06:24:48;17.50;59.10
51476;DHT22;37554;50.362;7.568;2022-11-15T06:27:14;17.50;59.10
51476;DHT22;37554;50.362;7.568;2022-11-15T06:29:39;17.50;59.10
51476;DHT22;37554;50.362;7.568;2022-11-15T06:32:05;17.50;59.10
51476;DHT22;37554;50.362;7.568;2022-11-15T06:34:30;17.50;59.10
51476;DHT22;37554;50.362;7.568;2022-11-15T06:36:56;17.40;59.10
51476;DHT22;37554;50.362;7.568;2022-11-15T06:39:22;17.50;59.20
51476;DHT22;37554;50.362;7.568;2022-11-15T06:41:47;17.50;59.30
51476;DHT22;37554;50.362;7.568;2022-11-15T06:44:13;17.50;59.30
51476;DHT22;37554;50.362;7.568;2022-11-15T06:46:38;17.50;59.40
51476;DHT22;37554;50.362;7.568;2022-11-15T06:49:04;17.50;59.40
51476;DHT22;37554;50.362;7.568;2022-11-15T06:51:29;17.50;59.40
51476;DHT22;37554;50.362;7.568;2022-11-15T06:53:55;17.50;59.40
51476;DHT22;37554;50.362;7.568;2022-11-15T06:56:21;17.50;59.40
51476;DHT22;37554;50.362;7.568;2022-11-15T06:58:46;17.50;59.40
51476;DHT22;37554;50.362;7.568;2022-11-15T07:01:12;17.50;59.40
51476;DHT22;37554;50.362;7.568;2022-11-15T07:03:40;17.50;59.40
51476;DHT22;37554;50.362;7.568;2022-11-15T07:06:06;17.40;59.30
51476;DHT22;37554;50.362;7.568;2022-11-15T07:08:32;17.50;59.40
51476;DHT22;37554;50.362;7.568;2022-11-15T07:10:59;17.40;59.30
51476;DHT22;37554;50.362;7.568;2022-11-15T07:13:26;17.50;59.40
51476;DHT22;37554;50.362;7.568;2022-11-15T07:15:52;17.50;59.40
51476;DHT22;37554;50.362;7.568;2022-11-15T07:18:18;17.50;59.30
51476;DHT22;37554;50.362;7.568;2022-11-15T07:20:43;17.50;59.30
51476;DHT22;37554;50.362;7.568;2022-11-15T07:23:09;17.50;59.40
51476;DHT22;37554;50.362;7.568;2022-11-15T07:25:35;17.40;59.70
51476;DHT22;37554;50.362;7.568;2022-11-15T07:28:01;17.50;59.80
51476;DHT22;37554;50.362;7.568;2022-11-15T07:30:27;17.50;59.70
51476;DHT22;37554;50.362;7.568;2022-11-15T07:32:57;17.40;59.60
51476;DHT22;37554;50.362;7.568;2022-11-15T07:35:24;17.40;59.60
51476;DHT22;37554;50.362;7.568;2022-11-15T07:37:54;17.40;59.60
51476;DHT22;37554;50.362;7.568;2022-11-15T07:40:20;17.40;59.70
51476;DHT22;37554;50.362;7.568;2022-11-15T07:42:45;17.40;59.60
51476;DHT22;37554;50.362;7.568;2022-11-15T07:45:23;17.40;59.60
51476;DHT22;37554;50.362;7.568;2022-11-15T07:47:49;17.40;59.50
51476;DHT22;37554;50.362;7.568;2022-11-15T07:50:16;17.40;59.50
51476;DHT22;37554;50.362;7.568;2022-11-15T07:52:42;17.40;59.40
51476;DHT22;37554;50.362;7.568;2022-11-15T07:55:08;17.40;59.40
51476;DHT22;37554;50.362;7.568;2022-11-15T07:57:34;17.40;59.30
51476;DHT22;37554;50.362;7.568;2022-11-15T07:59:59;17.40;59.30
51476;DHT22;37554;50.362;7.568;2022-11-15T08:02:25;17.40;59.30
51476;DHT22;37554;50.362;7.568;2022-11-15T08:04:50;17.40;59.30
51476;DHT22;37554;50.362;7.568;2022-11-15T08:07:16;17.50;59.40
51476;DHT22;37554;50.362;7.568;2022-11-15T08:09:41;17.50;59.40
51476;DHT22;37554;50.362;7.568;2022-11-15T08:12:07;17.50;59.50
51476;DHT22;37554;50.362;7.568;2022-11-15T08:14:34;17.50;59.50
51476;DHT22;37554;50.362;7.568;2022-11-15T08:17:00;17.50;59.60
51476;DHT22;37554;50.362;7.568;2022-11-15T08:19:25;17.50;59.60
51476;DHT22;37554;50.362;7.568;2022-11-15T08:21:51;17.50;59.70
51476;DHT22;37554;50.362;7.568;2022-11-15T08:24:16;17.50;59.60
51476;DHT22;37554;50.362;7.568;2022-11-15T08:26:42;17.50;59.60
51476;DHT22;37554;50.362;7.568;2022-11-15T08:29:07;17.60;59.70
51476;DHT22;37554;50.362;7.568;2022-11-15T08:31:34;17.60;59.80
51476;DHT22;37554;50.362;7.568;2022-11-15T08:34:05;17.60;59.80
51476;DHT22;37554;50.362;7.568;2022-11-15T08:36:31;17.60;59.80
51476;DHT22;37554;50.362;7.568;2022-11-15T08:38:56;17.70;59.90
51476;DHT22;37554;50.362;7.568;2022-11-15T08:43:52;17.70;59.70
51476;DHT22;37554;50.362;7.568;2022-11-15T08:46:18;17.70;59.70
51476;DHT22;37554;50.362;7.568;2022-11-15T08:48:44;17.70;59.70
51476;DHT22;37554;50.362;7.568;2022-11-15T08:51:10;17.70;59.60
51476;DHT22;37554;50.362;7.568;2022-11-15T08:53:35;17.70;59.50
51476;DHT22;37554;50.362;7.568;2022-11-15T08:56:01;17.70;59.50
51476;DHT22;37554;50.362;7.568;2022-11-15T08:58:27;17.60;59.40
51476;DHT22;37554;50.362;7.568;2022-11-15T09:00:53;17.60;59.40
51476;DHT22;37554;50.362;7.568;2022-11-15T09:03:19;17.60;59.40
51476;DHT22;37554;50.362;7.568;2022-11-15T09:05:44;17.60;59.40
51476;DHT22;37554;50.362;7.568;2022-11-15T09:08:10;17.70;59.40
51476;DHT22;37554;50.362;7.568;2022-11-15T09:10:38;17.70;59.40
51476;DHT22;37554;50.362;7.568;2022-11-15T09:13:03;17.60;59.30
51476;DHT22;37554;50.362;7.568;2022-11-15T09:15:29;17.70;59.30
51476;DHT22;37554;50.362;7.568;2022-11-15T09:17:58;17.70;59.20
51476;DHT22;37554;50.362;7.568;2022-11-15T09:20:24;17.70;59.10
51476;DHT22;37554;50.362;7.568;2022-11-15T09:22:50;17.70;59.10
51476;DHT22;37554;50.362;7.568;2022-11-15T09:25:16;17.80;59.10
51476;DHT22;37554;50.362;7.568;2022-11-15T09:27:41;17.80;59.10
51476;DHT22;37554;50.362;7.568;2022-11-15T09:30:07;17.80;59.00
51476;DHT22;37554;50.362;7.568;2022-11-15T09:32:33;17.90;58.90
51476;DHT22;37554;50.362;7.568;2022-11-15T09:34:58;17.90;58.80
51476;DHT22;37554;50.362;7.568;2022-11-15T09:37:24;18.00;58.90
51476;DHT22;37554;50.362;7.568;2022-11-15T09:39:50;17.90;58.70
51476;DHT22;37554;50.362;7.568;2022-11-15T09:42:44;18.00;58.80
51476;DHT22;37554;50.362;7.568;2022-11-15T09:45:24;18.00;59.00
51476;DHT22;37554;50.362;7.568;2022-11-15T09:50:47;17.90;59.00
51476;DHT22;37554;50.362;7.568;2022-11-15T09:56:01;18.00;59.10
51476;DHT22;37554;50.362;7.568;2022-11-15T10:04:21;18.20;59.00
51476;DHT22;37554;50.362;7.568;2022-11-15T10:06:58;18.30;59.00
51476;DHT22;37554;50.362;7.568;2022-11-15T10:09:31;18.30;59.40
51476;DHT22;37554;50.362;7.568;2022-11-15T10:11:59;18.30;59.40
51476;DHT22;37554;50.362;7.568;2022-11-15T10:14:27;18.40;59.40
51476;DHT22;37554;50.362;7.568;2022-11-15T10:19:56;18.40;59.40
51476;DHT22;37554;50.362;7.568;2022-11-15T10:22:50;18.50;59.40
51476;DHT22;37554;50.362;7.568;2022-11-15T10:25:28;18.60;59.40
51476;DHT22;37554;50.362;7.568;2022-11-15T10:28:17;18.60;59.10
51476;DHT22;37554;50.362;7.568;2022-11-15T10:30:47;18.60;58.90
51476;DHT22;37554;50.362;7.568;2022-11-15T10:33:33;18.70;58.90
51476;DHT22;37554;50.362;7.568;2022-11-15T10:46:33;18.60;58.60
51476;DHT22;37554;50.362;7.568;2022-11-15T10:49:26;18.60;58.70
51476;DHT22;37554;50.362;7.568;2022-11-15T10:51:59;18.50;58.60
51476;DHT22;37554;50.362;7.568;2022-11-15T10:55:22;18.50;58.60
51476;DHT22;37554;50.362;7.568;2022-11-15T10:57:37;18.60;58.60
51476;DHT22;37554;50.362;7.568;2022-11-15T11:00:27;18.60;58.60
51476;DHT22;37554;50.362;7.568;2022-11-15T11:05:32;18.60;58.40
51476;DHT22;37554;50.362;7.568;2022-11-15T11:10:37;18.60;58.40
51476;DHT22;37554;50.362;7.568;2022-11-15T11:13:23;18.60;58.40
51476;DHT22;37554;50.362;7.568;2022-11-15T11:15:59;18.60;58.40
51476;DHT22;37554;50.362;7.568;2022-11-15T11:21:26;18.70;58.40
51476;DHT22;37554;50.362;7.568;2022-11-15T11:24:19;18.70;58.40
51476;DHT22;37554;50.362;7.568;2022-11-15T11:38:24;18.70;58.60
51476;DHT22;37554;50.362;7.568;2022-11-15T11:49:52;18.70;58.90
51476;DHT22;37554;50.362;7.568;2022-11-15T11:55:49;18.60;59.10
51476;DHT22;37554;50.362;7.568;2022-11-15T12:01:01;18.60;59.10
51476;DHT22;37554;50.362;7.568;2022-11-15T12:03:40;18.60;59.00
51476;DHT22;37554;50.362;7.568;2022-11-15T12:06:35;18.50;58.90
51476;DHT22;37554;50.362;7.568;2022-11-15T12:09:13;18.50;58.90
51476;DHT22;37554;50.362;7.568;2022-11-15T12:11:57;18.50;58.90
51476;DHT22;37554;50.362;7.568;2022-11-15T12:14:33;18.50;58.80
51476;DHT22;37554;50.362;7.568;2022-11-15T12:17:01;18.50;58.80
51476;DHT22;37554;50.362;7.568;2022-11-15T12:19:28;18.40;58.80
51476;DHT22;37554;50.362;7.568;2022-11-15T12:22:20;18.40;58.80
51476;DHT22;37554;50.362;7.568;2022-11-15T12:25:07;18.40;58.80
51476;DHT22;37554;50.362;7.568;2022-11-15T12:27:49;18.40;58.80
51476;DHT22;37554;50.362;7.568;2022-11-15T12:30:19;18.30;58.80
51476;DHT22;37554;50.362;7.568;2022-11-15T12:32:58;18.30;58.80
51476;DHT22;37554;50.362;7.568;2022-11-15T12:37:54;18.30;58.70
51476;DHT22;37554;50.362;7.568;2022-11-15T12:43:38;18.30;58.70
51476;DHT22;37554;50.362;7.568;2022-11-15T12:46:08;18.30;58.70
51476;DHT22;37554;50.362;7.568;2022-11-15T12:51:03;18.30;58.70
51476;DHT22;37554;50.362;7.568;2022-11-15T12:53:31;18.20;58.60
51476;DHT22;37554;50.362;7.568;2022-11-15T13:04:22;18.20;58.50
51476;DHT22;37554;50.362;7.568;2022-11-15T13:06:55;18.30;58.40
51476;DHT22;37554;50.362;7.568;2022-11-15T13:14:50;18.20;58.30
51476;DHT22;37554;50.362;7.568;2022-11-15T13:19:47;18.20;58.20
51476;DHT22;37554;50.362;7.568;2022-11-15T13:22:13;18.20;58.20
51476;DHT22;37554;50.362;7.568;2022-11-15T13:25:00;18.20;58.20
51476;DHT22;37554;50.362;7.568;2022-11-15T13:27:26;18.20;58.20
51476;DHT22;37554;50.362;7.568;2022-11-15T13:29:53;18.20;58.10
51476;DHT22;37554;50.362;7.568;2022-11-15T13:32:18;18.20;58.10
51476;DHT22;37554;50.362;7.568;2022-11-15T13:34:46;18.20;58.20
51476;DHT22;37554;50.362;7.568;2022-11-15T13:37:28;18.20;58.20
51476;DHT22;37554;50.362;7.568;2022-11-15T13:40:15;18.20;58.20
51476;DHT22;37554;50.362;7.568;2022-11-15T13:42:43;18.20;58.10
51476;DHT22;37554;50.362;7.568;2022-11-15T13:45:13;18.20;58.20
51476;DHT22;37554;50.362;7.568;2022-11-15T13:47:40;18.20;58.20
51476;DHT22;37554;50.362;7.568;2022-11-15T13:50:05;18.10;58.10
51476;DHT22;37554;50.362;7.568;2022-11-15T13:52:34;18.10;58.10
51476;DHT22;37554;50.362;7.568;2022-11-15T13:55:05;18.10;58.10
51476;DHT22;37554;50.362;7.568;2022-11-15T13:57:48;18.10;58.00
51476;DHT22;37554;50.362;7.568;2022-11-15T14:02:49;18.10;58.00
51476;DHT22;37554;50.362;7.568;2022-11-15T14:05:19;18.10;58.00
51476;DHT22;37554;50.362;7.568;2022-11-15T14:07:56;18.10;58.00
51476;DHT22;37554;50.362;7.568;2022-11-15T14:10:33;18.10;57.90
51476;DHT22;37554;50.362;7.568;2022-11-15T14:13:00;18.10;57.90
51476;DHT22;37554;50.362;7.568;2022-11-15T14:15:35;18.10;57.90
51476;DHT22;37554;50.362;7.568;2022-11-15T14:18:01;18.10;57.90
51476;DHT22;37554;50.362;7.568;2022-11-15T14:20:31;18.00;57.80
51476;DHT22;37554;50.362;7.568;2022-11-15T14:23:17;18.00;57.80
51476;DHT22;37554;50.362;7.568;2022-11-15T14:25:58;18.10;57.90
51476;DHT22;37554;50.362;7.568;2022-11-15T14:30:54;18.00;57.80
51476;DHT22;37554;50.362;7.568;2022-11-15T14:33:34;18.00;57.80
51476;DHT22;37554;50.362;7.568;2022-11-15T14:36:05;18.00;57.80
51476;DHT22;37554;50.362;7.568;2022-11-15T14:38:31;18.00;57.80
51476;DHT22;37554;50.362;7.568;2022-11-15T14:40:57;18.00;57.80
51476;DHT22;37554;50.362;7.568;2022-11-15T14:43:24;18.00;57.80
51476;DHT22;37554;50.362;7.568;2022-11-15T14:45:49;18.00;57.80
51476;DHT22;37554;50.362;7.568;2022-11-15T14:48:15;18.00;57.80
51476;DHT22;37554;50.362;7.568;2022-11-15T14:50:41;18.00;57.70
51476;DHT22;37554;50.362;7.568;2022-11-15T14:53:10;18.00;57.60
51476;DHT22;37554;50.362;7.568;2022-11-15T14:55:36;18.00;57.60
51476;DHT22;37554;50.362;7.568;2022-11-15T14:58:03;18.00;57.60
51476;DHT22;37554;50.362;7.568;2022-11-15T15:00:32;18.00;57.60
51476;DHT22;37554;50.362;7.568;2022-11-15T15:02:58;18.00;57.70
51476;DHT22;37554;50.362;7.568;2022-11-15T15:05:46;18.00;57.70
51476;DHT22;37554;50.362;7.568;2022-11-15T15:08:11;18.00;57.70
51476;DHT22;37554;50.362;7.568;2022-11-15T15:10:40;17.90;57.60
51476;DHT22;37554;50.362;7.568;2022-11-15T15:13:27;17.90;57.60
51476;DHT22;37554;50.362;7.568;2022-11-15T15:15:54;18.00;57.60
51476;DHT22;37554;50.362;7.568;2022-11-15T15:18:20;17.90;57.60
51476;DHT22;37554;50.362;7.568;2022-11-15T15:20:52;17.90;57.60
51476;DHT22;37554;50.362;7.568;2022-11-15T15:23:20;17.90;57.60
51476;DHT22;37554;50.362;7.568;2022-11-15T15:25:47;17.90;57.60
51476;DHT22;37554;50.362;7.568;2022-11-15T15:28:14;17.90;57.60
51476;DHT22;37554;50.362;7.568;2022-11-15T15:30:40;17.90;57.60
51476;DHT22;37554;50.362;7.568;2022-11-15T15:33:06;17.90;57.70
51476;DHT22;37554;50.362;7.568;2022-11-15T15:35:33;17.90;57.70
51476;DHT22;37554;50.362;7.568;2022-11-15T15:38:00;17.90;57.70
51476;DHT22;37554;50.362;7.568;2022-11-15T15:40:28;17.90;57.80
51476;DHT22;37554;50.362;7.568;2022-11-15T15:42:54;17.90;57.80
51476;DHT22;37554;50.362;7.568;2022-11-15T15:45:20;17.80;57.80
51476;DHT22;37554;50.362;7.568;2022-11-15T15:47:46;17.90;57.80
51476;DHT22;37554;50.362;7.568;2022-11-15T15:50:25;17.80;57.80
51476;DHT22;37554;50.362;7.568;2022-11-15T15:52:53;17.90;57.80
51476;DHT22;37554;50.362;7.568;2022-11-15T15:55:19;17.90;57.90
51476;DHT22;37554;50.362;7.568;2022-11-15T15:57:45;17.80;57.90
51476;DHT22;37554;50.362;7.568;2022-11-15T16:00:11;17.90;57.90
51476;DHT22;37554;50.362;7.568;2022-11-15T16:02:37;17.90;58.00
51476;DHT22;37554;50.362;7.568;2022-11-15T16:05:03;17.80;57.90
51476;DHT22;37554;50.362;7.568;2022-11-15T16:07:29;17.80;57.90
51476;DHT22;37554;50.362;7.568;2022-11-15T16:09:55;17.80;57.90
51476;DHT22;37554;50.362;7.568;2022-11-15T16:12:34;17.80;58.00
51476;DHT22;37554;50.362;7.568;2022-11-15T16:15:00;17.80;58.00
51476;DHT22;37554;50.362;7.568;2022-11-15T16:17:30;17.80;57.90
51476;DHT22;37554;50.362;7.568;2022-11-15T16:19:56;17.80;58.00
51476;DHT22;37554;50.362;7.568;2022-11-15T16:22:22;17.80;58.00
51476;DHT22;37554;50.362;7.568;2022-11-15T16:24:47;17.80;58.00
51476;DHT22;37554;50.362;7.568;2022-11-15T16:27:19;17.80;58.00
51476;DHT22;37554;50.362;7.568;2022-11-15T16:29:45;17.80;58.10
51476;DHT22;37554;50.362;7.568;2022-11-15T16:32:11;17.80;58.00
51476;DHT22;37554;50.362;7.568;2022-11-15T16:34:37;17.80;58.10
51476;DHT22;37554;50.362;7.568;2022-11-15T16:37:03;17.80;58.10
51476;DHT22;37554;50.362;7.568;2022-11-15T16:39:29;17.80;58.10
51476;DHT22;37554;50.362;7.568;2022-11-15T16:41:58;17.80;58.10
51476;DHT22;37554;50.362;7.568;2022-11-15T16:44:25;17.80;58.10
51476;DHT22;37554;50.362;7.568;2022-11-15T16:46:51;17.80;58.20
51476;DHT22;37554;50.362;7.568;2022-11-15T16:49:18;17.80;58.20
51476;DHT22;37554;50.362;7.568;2022-11-15T16:51:48;17.80;58.20
51476;DHT22;37554;50.362;7.568;2022-11-15T16:54:14;17.80;58.20
51476;DHT22;37554;50.362;7.568;2022-11-15T16:56:41;17.80;58.20
51476;DHT22;37554;50.362;7.568;2022-11-15T16:59:10;17.80;58.20
51476;DHT22;37554;50.362;7.568;2022-11-15T17:01:38;17.80;58.20
51476;DHT22;37554;50.362;7.568;2022-11-15T17:04:16;17.80;58.30
51476;DHT22;37554;50.362;7.568;2022-11-15T17:06:44;17.80;58.20
51476;DHT22;37554;50.362;7.568;2022-11-15T17:09:18;17.80;58.30
51476;DHT22;37554;50.362;7.568;2022-11-15T17:11:44;17.80;58.30
51476;DHT22;37554;50.362;7.568;2022-11-15T17:14:10;17.80;58.20
51476;DHT22;37554;50.362;7.568;2022-11-15T17:16:36;17.80;58.30
51476;DHT22;37554;50.362;7.568;2022-11-15T17:19:13;17.80;58.30
51476;DHT22;37554;50.362;7.568;2022-11-15T17:21:39;17.80;58.30
51476;DHT22;37554;50.362;7.568;2022-11-15T17:24:05;17.80;59.00
51476;DHT22;37554;50.362;7.568;2022-11-15T17:26:31;17.80;58.30
51476;DHT22;37554;50.362;7.568;2022-11-15T17:28:56;17.80;58.40
51476;DHT22;37554;50.362;7.568;2022-11-15T17:31:23;17.80;58.30
51476;DHT22;37554;50.362;7.568;2022-11-15T17:33:49;17.80;58.40
51476;DHT22;37554;50.362;7.568;2022-11-15T17:36:15;17.80;58.30
51476;DHT22;37554;50.362;7.568;2022-11-15T17:38:41;17.80;58.40
51476;DHT22;37554;50.362;7.568;2022-11-15T17:41:11;17.80;58.40
51476;DHT22;37554;50.362;7.568;2022-11-15T17:43:37;17.80;58.40
51476;DHT22;37554;50.362;7.568;2022-11-15T17:46:20;17.80;58.40
51476;DHT22;37554;50.362;7.568;2022-11-15T17:48:47;17.80;58.40